Time;durP1;ratioP1;P1;durP2;ratioP2;P2;SDS_P1;SDS_P2;PMS_P1;PMS_P2;Temp;Humidity;BMP_temperature;BMP_pressure;BME280_temperature;BME280_humidity;BME280_pressure;Samples;Min_cycle;Max_cycle;Signal;HPM_P1;HPM_P2
2021/06/22 00:00:19;;;;;;;14.52;7.60;;;;;;;16.11;98.02;95713.00;5093886;28;20122;-66
2021/06/22 00:02:45;;;;;;;12.77;7.93;;;;;;;16.10;98.18;95713.31;5094249;28;20036;-64
2021/06/22 00:05:11;;;;;;;15.02;8.20;;;;;;;16.09;98.24;95711.69;5093790;28;20070;-64
2021/06/22 00:07:39;;;;;;;14.63;8.77;;;;;;;15.96;98.22;95711.31;5093096;28;20044;-64
2021/06/22 00:10:06;;;;;;;15.27;8.65;;;;;;;15.99;98.66;95710.75;5074658;28;20036;-64
2021/06/22 00:12:32;;;;;;;13.07;8.73;;;;;;;15.96;98.85;95708.66;5094697;28;20115;-70
2021/06/22 00:14:59;;;;;;;14.20;8.85;;;;;;;15.96;98.76;95703.34;5076814;28;20579;-64
2021/06/22 00:17:24;;;;;;;13.77;8.55;;;;;;;15.89;98.84;95715.38;5093059;28;20515;-63
2021/06/22 00:19:50;;;;;;;15.20;8.82;;;;;;;15.89;98.95;95724.13;5093037;28;20289;-64
2021/06/22 00:22:16;;;;;;;15.38;10.00;;;;;;;15.83;99.12;95732.41;5093388;28;20044;-64
2021/06/22 00:24:42;;;;;;;16.25;9.50;;;;;;;15.90;99.14;95728.34;5093185;28;20032;-64
2021/06/22 00:27:08;;;;;;;17.48;10.15;;;;;;;15.98;99.28;95743.66;5092789;28;20126;-64
2021/06/22 00:29:33;;;;;;;16.77;10.88;;;;;;;15.95;99.32;95740.78;5092694;28;20406;-65
2021/06/22 00:32:03;;;;;;;16.88;9.77;;;;;;;15.95;99.07;95738.91;5093119;28;20044;-65
2021/06/22 00:34:28;;;;;;;19.13;10.05;;;;;;;15.87;99.43;95728.91;5093353;28;20134;-66
2021/06/22 00:36:54;;;;;;;15.70;10.60;;;;;;;15.94;99.24;95718.78;5092515;28;20046;-65
2021/06/22 00:39:19;;;;;;;19.27;10.85;;;;;;;15.93;99.10;95716.41;5074404;28;20044;-66
2021/06/22 00:41:45;;;;;;;17.42;10.85;;;;;;;16.02;99.63;95715.50;5094653;28;20042;-65
2021/06/22 00:44:11;;;;;;;15.68;11.00;;;;;;;15.93;99.37;95706.59;5078048;28;20107;-65
2021/06/22 00:46:37;;;;;;;15.57;10.65;;;;;;;15.94;99.21;95707.38;5094719;28;20050;-65
2021/06/22 00:49:05;;;;;;;15.27;9.95;;;;;;;15.98;99.22;95703.06;5073921;28;20280;-65
2021/06/22 00:51:31;;;;;;;16.17;9.55;;;;;;;16.09;98.74;95709.03;5093158;28;20388;-65
2021/06/22 00:53:58;;;;;;;14.77;9.90;;;;;;;15.95;98.71;95709.75;5092447;28;20040;-65
2021/06/22 00:56:24;;;;;;;15.70;10.37;;;;;;;15.95;98.86;95717.69;5091816;28;20113;-66
2021/06/22 00:58:51;;;;;;;18.35;10.98;;;;;;;15.93;99.41;95714.53;5092261;28;20634;-65
2021/06/22 01:01:17;;;;;;;16.80;10.18;;;;;;;16.10;98.58;95705.34;5074635;28;20040;-65
2021/06/22 01:03:42;;;;;;;15.40;10.00;;;;;;;15.99;98.64;95708.09;5092410;28;20051;-65
2021/06/22 01:06:11;;;;;;;15.65;9.65;;;;;;;16.09;98.37;95706.41;5092602;28;20530;-65
2021/06/22 01:08:37;;;;;;;15.15;9.63;;;;;;;15.98;98.33;95708.38;5092443;28;20064;-65
2021/06/22 01:11:03;;;;;;;15.90;9.65;;;;;;;16.00;98.57;95706.25;5078912;28;20062;-65
2021/06/22 01:13:31;;;;;;;17.38;11.35;;;;;;;15.91;98.69;95702.63;5095011;28;20088;-66
2021/06/22 01:15:57;;;;;;;16.58;10.15;;;;;;;15.85;99.21;95693.94;5092509;28;20076;-65
2021/06/22 01:18:23;;;;;;;16.05;10.63;;;;;;;15.93;99.52;95700.50;5092712;28;20123;-66
2021/06/22 01:20:48;;;;;;;17.08;11.45;;;;;;;15.83;99.72;95695.28;5073271;28;20040;-66
2021/06/22 01:23:16;;;;;;;18.08;11.38;;;;;;;15.89;99.41;95694.94;5092808;28;20485;-64
2021/06/22 01:25:41;;;;;;;19.95;11.20;;;;;;;15.83;99.47;95698.72;5092626;28;20119;-64
2021/06/22 01:28:07;;;;;;;17.83;11.40;;;;;;;15.78;99.87;95700.66;5092074;28;20123;-65
2021/06/22 01:30:33;;;;;;;16.25;10.85;;;;;;;15.77;100.00;95702.50;5091667;28;20048;-65
2021/06/22 01:33:00;;;;;;;18.63;11.23;;;;;;;15.82;99.92;95699.81;5092120;28;20523;-65
2021/06/22 01:35:29;;;;;;;18.40;10.52;;;;;;;15.82;100.00;95699.81;5092306;28;20139;-65
2021/06/22 01:37:56;;;;;;;17.17;10.18;;;;;;;15.83;99.82;95690.78;5073868;28;20079;-64
2021/06/22 01:40:23;;;;;;;18.48;9.18;;;;;;;15.84;99.85;95700.31;5092003;28;20059;-65
2021/06/22 01:42:50;;;;;;;15.40;9.27;;;;;;;15.80;100.00;95695.84;5091882;28;20089;-65
2021/06/22 01:45:17;;;;;;;14.38;8.80;;;;;;;15.81;100.00;95706.16;5091724;28;20478;-65
2021/06/22 01:47:43;;;;;;;14.38;8.75;;;;;;;15.77;99.91;95715.78;5092333;28;20048;-65
2021/06/22 01:50:10;;;;;;;13.15;7.30;;;;;;;15.81;99.66;95708.81;5091978;28;20139;-65
2021/06/22 01:52:36;;;;;;;12.10;6.88;;;;;;;15.77;99.10;95707.81;5092223;28;20047;-65
2021/06/22 01:55:35;;;;;;;15.43;7.70;;;;;;;15.68;99.14;95707.63;5073347;28;20084;-65
2021/06/22 01:57:50;;;;;;;15.70;8.00;;;;;;;15.65;99.30;95704.72;5091384;28;20135;-65
2021/06/22 02:00:16;;;;;;;15.77;7.67;;;;;;;15.52;99.71;95694.75;5093184;28;20043;-65
2021/06/22 02:02:42;;;;;;;14.60;7.97;;;;;;;15.59;99.40;95711.13;5098953;28;20284;-65
2021/06/22 02:05:11;;;;;;;15.68;8.95;;;;;;;15.52;99.80;95710.66;5104931;28;20040;-65
2021/06/22 02:07:37;;;;;;;14.70;8.55;;;;;;;15.51;99.61;95709.09;5105769;28;20044;-65
2021/06/22 02:10:04;;;;;;;15.55;9.07;;;;;;;15.54;99.50;95711.16;5100306;28;20452;-65
2021/06/22 02:12:29;;;;;;;14.30;8.73;;;;;;;15.51;99.05;95709.09;5095840;28;20044;-65
2021/06/22 02:14:56;;;;;;;16.13;9.18;;;;;;;15.51;99.66;95709.09;5078472;28;20040;-66
2021/06/22 02:17:22;;;;;;;16.88;9.20;;;;;;;15.44;99.91;95710.22;5096173;28;20154;-69
2021/06/22 02:19:47;;;;;;;17.27;11.07;;;;;;;15.42;99.87;95707.03;5077595;28;20286;-68
2021/06/22 02:22:15;;;;;;;20.00;11.23;;;;;;;15.43;100.00;95708.59;5095870;28;20511;-68
2021/06/22 02:24:43;;;;;;;;;;;;;;;15.37;100.00;95708.94;5077264;28;20044;-65
2021/06/22 02:27:11;;;;;;;17.73;10.18;;;;;;;15.33;100.00;95706.03;5095226;28;19938;-65
2021/06/22 02:29:36;;;;;;;18.50;10.27;;;;;;;15.32;100.00;95701.81;5094515;28;20416;-65
2021/06/22 02:32:04;;;;;;;18.85;10.95;;;;;;;15.39;100.00;95704.13;5095059;28;20046;-64
2021/06/22 02:34:29;;;;;;;20.80;11.70;;;;;;;15.31;100.00;95700.22;5095412;28;20173;-63
2021/06/22 02:36:55;;;;;;;18.67;11.43;;;;;;;15.29;100.00;95705.03;5095284;28;20462;-63
2021/06/22 02:39:21;;;;;;;16.50;9.63;;;;;;;15.25;100.00;95701.34;5095440;28;20044;-66
2021/06/22 02:41:46;;;;;;;16.02;9.52;;;;;;;15.32;100.00;95704.47;5095310;28;20060;-66
2021/06/22 02:44:12;;;;;;;17.38;10.40;;;;;;;15.29;100.00;95705.03;5094687;28;20032;-65
2021/06/22 02:46:38;;;;;;;18.17;10.80;;;;;;;15.37;100.00;95707.06;5093759;28;20044;-67
2021/06/22 02:49:05;;;;;;;19.80;11.05;;;;;;;15.33;100.00;95708.69;5094756;28;20036;-67
2021/06/22 02:51:31;;;;;;;19.73;11.40;;;;;;;15.33;100.00;95700.72;5076930;28;20135;-68
2021/06/22 02:53:59;;;;;;;17.95;10.88;;;;;;;15.35;100.00;95703.13;5094955;28;20064;-67
2021/06/22 02:56:26;;;;;;;18.73;10.80;;;;;;;15.22;100.00;95701.88;5103565;28;20060;-67
2021/06/22 02:58:52;;;;;;;;;;;;;;;15.19;100.00;95699.81;5103649;28;20040;-67
2021/06/22 03:01:17;;;;;;;19.83;12.20;;;;;;;15.17;100.00;95699.28;5096289;28;20090;-65
2021/06/22 03:03:43;;;;;;;19.98;11.65;;;;;;;15.14;100.00;95708.59;5094829;28;20044;-64
2021/06/22 03:06:10;;;;;;;22.52;12.15;;;;;;;15.24;100.00;95699.78;5094587;28;20047;-64
2021/06/22 03:08:36;;;;;;;23.55;12.65;;;;;;;15.28;100.00;95700.78;5094312;28;20048;-64
2021/06/22 03:11:04;;;;;;;23.10;12.93;;;;;;;15.31;100.00;95700.22;5093773;28;20146;-65
2021/06/22 03:13:30;;;;;;;23.63;12.38;;;;;;;15.31;100.00;95705.53;5094031;28;20160;-64
2021/06/22 03:15:56;;;;;;;24.02;13.18;;;;;;;15.25;100.00;95704.00;5094557;28;20114;-64
2021/06/22 03:18:24;;;;;;;23.63;13.32;;;;;;;15.20;100.00;95699.53;5094486;28;20119;-64
2021/06/22 03:20:49;;;;;;;;;;;;;;;15.26;100.00;95702.91;5076342;28;20050;-65
2021/06/22 03:23:16;;;;;;;20.45;11.80;;;;;;;15.28;100.00;95700.78;5093820;28;19916;-64
2021/06/22 03:25:42;;;;;;;25.67;12.77;;;;;;;15.27;100.00;95699.19;5094022;28;20071;-64
2021/06/22 03:28:07;;;;;;;24.85;13.52;;;;;;;15.33;100.00;95699.94;5093973;28;20127;-64
2021/06/22 03:30:33;;;;;;;24.15;12.90;;;;;;;15.36;100.00;95694.88;5093627;28;20044;-64
2021/06/22 03:33:01;;;;;;;22.48;11.77;;;;;;;15.30;100.00;95685.41;5094593;28;20048;-64
2021/06/22 03:35:29;;;;;;;;;;;;;;;15.26;100.00;95692.31;5094696;28;20040;-65
2021/06/22 03:37:55;;;;;;;18.58;9.68;;;;;;;15.40;100.00;95695.94;5094281;28;19920;-66
2021/06/22 03:40:23;;;;;;;15.02;8.95;;;;;;;15.23;100.00;95682.28;5093950;28;20040;-66
2021/06/22 03:42:51;;;;;;;16.77;8.55;;;;;;;15.23;100.00;95687.59;5076051;28;20437;-66
2021/06/22 03:45:17;;;;;;;15.73;7.82;;;;;;;15.13;100.00;95683.16;5094116;28;20054;-68
2021/06/22 03:47:43;;;;;;;20.77;8.48;;;;;;;15.10;100.00;95685.56;5094201;28;20044;-67
2021/06/22 03:50:10;;;;;;;14.23;7.97;;;;;;;15.13;100.00;95683.16;5094108;28;20705;-67
2021/06/22 03:52:35;;;;;;;16.40;9.25;;;;;;;15.11;100.00;95673.91;5094210;28;20191;-69
2021/06/22 03:55:02;;;;;;;17.20;8.90;;;;;;;15.08;100.00;95679.75;5094451;28;20460;-67
2021/06/22 03:57:31;;;;;;;18.85;9.85;;;;;;;15.11;100.00;95679.19;5093059;28;20044;-67
2021/06/22 03:59:59;;;;;;;18.35;10.20;;;;;;;15.16;100.00;95676.50;5093378;28;20652;-66
2021/06/22 04:02:27;;;;;;;14.20;9.00;;;;;;;15.17;100.00;95676.25;5093635;28;20101;-68
2021/06/22 04:04:53;;;;;;;16.08;8.55;;;;;;;15.22;100.00;95684.13;5094607;28;20428;-67
2021/06/22 04:07:18;;;;;;;18.05;9.40;;;;;;;15.28;100.00;95674.28;5076121;28;20075;-69
2021/06/22 04:09:44;;;;;;;17.92;9.52;;;;;;;15.31;100.00;95680.91;5095956;28;20066;-69
2021/06/22 04:12:10;;;;;;;15.75;9.57;;;;;;;15.41;100.00;95684.25;5100532;28;20040;-75
2021/06/22 04:14:39;;;;;;;24.33;10.07;;;;;;;15.47;100.00;95691.06;5080563;28;20043;-77
2021/06/22 04:17:05;;;;;;;18.25;10.45;;;;;;;15.45;100.00;95685.28;5079109;28;20100;-76
2021/06/22 04:19:31;;;;;;;20.58;10.85;;;;;;;15.53;100.00;95691.03;5096061;28;20107;-72
2021/06/22 04:21:56;;;;;;;18.20;10.70;;;;;;;15.58;100.00;95688.34;5094794;28;20085;-66
2021/06/22 04:24:22;;;;;;;17.83;10.57;;;;;;;15.60;100.00;95691.50;5089669;28;20032;-69
2021/06/22 04:26:47;;;;;;;18.05;10.50;;;;;;;15.59;99.64;95689.91;5081402;28;20041;-68
2021/06/22 04:29:13;;;;;;;15.23;10.13;;;;;;;15.66;99.89;95685.91;5074155;28;20064;-67
2021/06/22 04:31:40;;;;;;;21.10;10.45;;;;;;;15.67;99.76;95684.03;5087725;28;20531;-68
2021/06/22 04:34:06;;;;;;;24.97;11.00;;;;;;;15.68;99.86;95697.00;5074092;28;20036;-68
2021/06/22 04:36:34;;;;;;;17.90;10.65;;;;;;;15.81;100.00;95692.91;5055694;28;20174;-68
2021/06/22 04:39:00;;;;;;;18.67;10.05;;;;;;;15.87;99.10;95694.44;5056357;28;20044;-68
2021/06/22 04:41:25;;;;;;;16.88;9.45;;;;;;;15.93;98.45;95692.53;5063705;28;20181;-68
2021/06/22 04:43:51;;;;;;;16.48;10.85;;;;;;;15.94;98.17;95694.91;5080995;28;20051;-68
2021/06/22 04:46:19;;;;;;;16.85;9.40;;;;;;;15.97;97.69;95693.53;5075356;28;20444;-68
2021/06/22 04:48:46;;;;;;;18.65;9.98;;;;;;;16.04;97.34;95691.34;5074250;28;20514;-68
2021/06/22 04:51:12;;;;;;;18.08;9.95;;;;;;;15.99;97.44;95692.19;5074135;28;20534;-68
2021/06/22 04:53:38;;;;;;;17.05;9.27;;;;;;;15.93;97.62;95701.28;5074606;28;20085;-68
2021/06/22 04:56:04;;;;;;;18.80;10.27;;;;;;;16.06;97.57;95699.03;5073383;28;20064;-68
2021/06/22 04:58:31;;;;;;;16.80;9.85;;;;;;;15.98;97.44;95698.56;5073760;28;20043;-68
2021/06/22 05:01:00;;;;;;;15.95;9.38;;;;;;;15.98;97.52;95698.56;5073568;28;20412;-68
2021/06/22 05:03:26;;;;;;;17.25;9.85;;;;;;;15.97;97.23;95698.84;5055831;28;20124;-68
2021/06/22 05:05:53;;;;;;;16.75;9.63;;;;;;;15.93;97.76;95695.97;5073808;28;20068;-68
2021/06/22 05:08:19;;;;;;;15.93;10.03;;;;;;;15.90;97.69;95693.09;5073706;28;20415;-68
2021/06/22 05:10:45;;;;;;;18.40;10.43;;;;;;;15.99;97.82;95697.50;5073519;28;20044;-68
2021/06/22 05:13:10;;;;;;;18.05;10.30;;;;;;;16.16;97.24;95688.28;5074299;28;20041;-68
2021/06/22 05:15:36;;;;;;;18.35;10.13;;;;;;;16.24;96.71;95693.75;5079442;28;20037;-69
2021/06/22 05:18:02;;;;;;;15.13;10.13;;;;;;;16.21;96.75;95690.88;5088549;28;20119;-68
2021/06/22 05:20:27;;;;;;;16.08;9.75;;;;;;;16.23;96.14;95688.72;5087452;28;20066;-69
2021/06/22 05:22:54;;;;;;;18.23;10.63;;;;;;;16.27;96.83;95681.78;5075938;28;20548;-68
2021/06/22 05:25:20;;;;;;;17.75;9.60;;;;;;;16.59;94.91;95686.41;5075011;28;20127;-69
2021/06/22 05:27:46;;;;;;;15.95;9.02;;;;;;;16.59;94.59;95681.13;5073603;28;20064;-68
2021/06/22 05:30:12;;;;;;;16.30;9.57;;;;;;;16.49;94.76;95692.66;5074144;28;20465;-69
2021/06/22 05:32:38;;;;;;;17.20;9.60;;;;;;;16.40;94.76;95681.06;5074750;28;20052;-68
2021/06/22 05:35:05;;;;;;;15.35;9.32;;;;;;;16.30;94.99;95685.72;5072639;28;20040;-69
2021/06/22 05:37:30;;;;;;;15.93;9.85;;;;;;;16.70;94.58;95687.06;5073276;28;20036;-70
2021/06/22 05:39:58;;;;;;;17.52;10.38;;;;;;;17.44;92.57;95684.66;5074260;28;20045;-69
2021/06/22 05:42:24;;;;;;;13.18;8.85;;;;;;;17.55;91.19;95686.06;5073063;28;20139;-69
2021/06/22 05:44:49;;;;;;;16.60;8.15;;;;;;;17.54;90.76;95687.94;5073971;28;20452;-68
2021/06/22 05:47:15;;;;;;;11.60;7.05;;;;;;;18.29;87.63;95688.69;5074367;28;20539;-68
2021/06/22 05:49:41;;;;;;;14.82;8.38;;;;;;;18.93;87.98;95691.34;5073989;28;20067;-69
2021/06/22 05:52:07;;;;;;;15.05;7.47;;;;;;;19.31;87.58;95689.91;5074082;28;20131;-69
2021/06/22 05:54:33;;;;;;;14.75;7.18;;;;;;;19.65;85.34;95684.06;5056428;28;20537;-69
2021/06/22 05:57:00;;;;;;;9.75;6.10;;;;;;;19.96;83.31;95698.47;5073709;28;20051;-70
2021/06/22 05:59:25;;;;;;;12.30;5.90;;;;;;;20.12;80.97;95691.63;5055443;28;20050;-70
2021/06/22 06:01:51;;;;;;;9.23;5.22;;;;;;;20.18;78.96;95693.88;5072947;28;20261;-69
2021/06/22 06:04:17;;;;;;;14.00;5.78;;;;;;;20.37;80.82;95695.47;5073123;28;20507;-70
2021/06/22 06:06:42;;;;;;;12.10;5.93;;;;;;;20.58;79.03;95696.50;5073180;28;20040;-70
2021/06/22 06:09:08;;;;;;;15.48;5.97;;;;;;;20.67;78.58;95699.97;5073209;28;20514;-69
2021/06/22 06:11:34;;;;;;;11.82;5.68;;;;;;;20.67;75.62;95702.66;5073549;28;20048;-69
2021/06/22 06:14:01;;;;;;;10.65;5.80;;;;;;;20.68;76.63;95698.88;5073355;28;20531;-69
2021/06/22 06:16:27;;;;;;;;;;;;;;;20.97;77.49;95702.81;5073827;28;20047;-69
2021/06/22 06:18:55;;;;;;;11.13;5.05;;;;;;;21.43;73.25;95704.13;5073048;28;20450;-69
2021/06/22 06:21:22;;;;;;;9.98;4.40;;;;;;;21.40;72.67;95688.69;5073178;28;20078;-68
2021/06/22 06:23:49;;;;;;;;;;;;;;;22.45;70.64;95696.06;5055657;28;20079;-69
2021/06/22 06:26:18;;;;;;;9.65;4.38;;;;;;;22.22;72.00;95692.88;5077525;28;19920;-68
2021/06/22 06:28:47;;;;;;;8.88;4.50;;;;;;;22.16;70.52;95701.41;5066083;28;20064;-68
2021/06/22 06:31:14;;;;;;;8.52;4.03;;;;;;;21.62;71.61;95690.38;5074519;28;20048;-68
2021/06/22 06:33:43;;;;;;;9.90;4.50;;;;;;;21.74;72.03;95690.50;5072653;28;20040;-68
2021/06/22 06:36:09;;;;;;;9.70;4.60;;;;;;;21.30;74.09;95691.69;5072970;28;20044;-68
2021/06/22 06:38:37;;;;;;;11.00;4.78;;;;;;;21.00;74.63;95686.16;5072409;28;20052;-67
2021/06/22 06:41:03;;;;;;;9.98;4.78;;;;;;;20.40;74.49;95697.53;5072495;28;20519;-68
2021/06/22 06:43:28;;;;;;;9.57;5.00;;;;;;;20.44;76.23;95698.47;5074164;28;20045;-67
2021/06/22 06:45:54;;;;;;;10.13;4.85;;;;;;;20.38;75.88;95705.06;5073075;28;20044;-68
2021/06/22 06:48:23;;;;;;;10.55;4.15;;;;;;;20.39;74.22;95698.63;5075573;28;20036;-67
2021/06/22 06:50:49;;;;;;;9.20;4.72;;;;;;;20.15;76.56;95705.16;5076589;28;20036;-68
2021/06/22 06:53:14;;;;;;;9.73;4.78;;;;;;;19.96;76.56;95709.13;5077955;28;20407;-68
2021/06/22 06:55:43;;;;;;;10.50;4.90;;;;;;;20.18;77.60;95707.22;5078792;28;20093;-68
2021/06/22 06:58:10;;;;;;;13.30;5.32;;;;;;;20.21;77.60;95702.34;5077328;28;20032;-68
2021/06/22 07:00:37;;;;;;;9.00;5.18;;;;;;;20.80;77.67;95702.81;5076972;28;20041;-69
2021/06/22 07:03:04;;;;;;;9.27;4.65;;;;;;;21.90;71.86;95693.44;5076848;28;20454;-69
2021/06/22 07:05:35;;;;;;;10.38;4.78;;;;;;;22.24;69.10;95701.38;5076264;28;20045;-68
2021/06/22 07:08:01;;;;;;;12.93;5.07;;;;;;;23.11;69.23;95706.22;5076772;28;20070;-67
2021/06/22 07:10:28;;;;;;;14.60;5.20;;;;;;;22.91;69.22;95704.31;5058840;28;20064;-69
2021/06/22 07:12:58;;;;;;;9.95;3.92;;;;;;;23.44;65.24;95705.47;5058875;28;20048;-68
2021/06/22 07:15:24;;;;;;;8.93;4.45;;;;;;;23.01;66.24;95710.06;5076031;28;20567;-68
2021/06/22 07:17:50;;;;;;;8.60;4.10;;;;;;;23.21;65.47;95695.09;5076297;28;20028;-68
2021/06/22 07:20:15;;;;;;;9.68;3.30;;;;;;;22.78;62.70;95698.88;5090557;28;20096;-68
2021/06/22 07:22:45;;;;;;;8.40;2.95;;;;;;;23.63;64.10;95697.75;5091604;28;20052;-68
2021/06/22 07:25:11;;;;;;;8.18;2.95;;;;;;;23.56;61.35;95700.13;5079052;28;20108;-68
2021/06/22 07:27:37;;;;;;;10.38;2.58;;;;;;;23.69;59.58;95690.25;5115157;22;20039;-68
2021/06/22 07:30:06;;;;;;;6.22;2.40;;;;;;;22.82;62.80;95693.66;5113526;28;20092;-68
2021/06/22 07:32:32;;;;;;;6.70;2.30;;;;;;;22.95;61.06;95686.47;5114694;28;20043;-68
2021/06/22 07:35:00;;;;;;;7.28;2.00;;;;;;;23.22;60.97;95691.28;5114462;28;20407;-68
2021/06/22 07:37:26;;;;;;;7.43;2.70;;;;;;;22.79;63.16;95710.38;5114257;28;20040;-69
2021/06/22 07:39:53;;;;;;;7.13;2.10;;;;;;;22.39;63.52;95708.09;5114250;28;20101;-69
2021/06/22 07:42:18;;;;;;;7.95;2.08;;;;;;;22.19;64.91;95704.22;5113863;28;20064;-68
2021/06/22 07:44:44;;;;;;;6.97;2.00;;;;;;;22.24;63.79;95711.31;5114095;28;20513;-68
2021/06/22 07:47:12;;;;;;;9.65;2.05;;;;;;;22.16;62.22;95723.63;5113880;28;20560;-68
2021/06/22 07:49:40;;;;;;;5.53;1.70;;;;;;;21.86;64.21;95719.28;5113676;28;20089;-67
2021/06/22 07:52:08;;;;;;;7.10;1.83;;;;;;;21.84;65.95;95713.47;5095647;28;20100;-68
2021/06/22 07:54:36;;;;;;;6.35;1.75;;;;;;;21.79;66.14;95721.66;5114583;28;20100;-67
2021/06/22 07:57:03;;;;;;;5.82;1.90;;;;;;;21.58;64.92;95721.53;5113888;28;20135;-68
2021/06/22 07:59:29;;;;;;;4.63;1.50;;;;;;;21.77;66.06;95723.88;5113154;28;20050;-68
2021/06/22 08:01:55;;;;;;;7.43;1.70;;;;;;;21.75;64.14;95730.34;5097456;28;20035;-68
2021/06/22 08:04:20;;;;;;;5.97;1.80;;;;;;;22.14;64.56;95733.88;5120367;28;20044;-67
2021/06/22 08:06:47;;;;;;;5.45;1.75;;;;;;;22.74;61.74;95729.31;5118060;28;20039;-67
2021/06/22 08:09:13;;;;;;;8.85;2.20;;;;;;;22.76;62.30;95722.53;5114966;28;20104;-68
2021/06/22 08:11:39;;;;;;;6.90;2.15;;;;;;;22.96;60.63;95717.53;5113762;28;20066;-68
2021/06/22 08:14:06;;;;;;;7.97;1.90;;;;;;;23.05;59.47;95723.63;5113536;28;20120;-68
2021/06/22 08:16:31;;;;;;;6.43;1.83;;;;;;;23.30;57.53;95725.34;5094887;28;20088;-67
2021/06/22 08:18:57;;;;;;;7.78;1.90;;;;;;;23.30;58.77;95725.34;5113226;28;20043;-68
2021/06/22 08:21:24;;;;;;;7.13;1.70;;;;;;;23.01;58.58;95726.19;5113463;28;20520;-68
2021/06/22 08:23:50;;;;;;;6.95;2.20;;;;;;;23.96;57.54;95729.16;5113751;28;20043;-68
2021/06/22 08:26:17;;;;;;;6.40;2.30;;;;;;;24.55;56.84;95734.94;5113652;28;20445;-67
2021/06/22 08:28:45;;;;;;;8.55;4.68;;;;;;;25.27;55.67;95729.78;5113089;28;20510;-68
2021/06/22 08:31:16;;;;;;;8.20;2.08;;;;;;;26.52;50.03;95724.22;5114190;28;20089;-68
2021/06/22 08:33:42;;;;;;;7.22;2.05;;;;;;;25.03;54.05;95733.31;5113584;28;20417;-67
2021/06/22 08:36:08;;;;;;;7.47;2.40;;;;;;;25.08;54.23;95726.94;5113500;28;20057;-69
2021/06/22 08:38:33;;;;;;;4.70;1.70;;;;;;;25.07;53.53;95730.75;5113303;28;20039;-68
2021/06/22 08:40:59;;;;;;;5.75;1.58;;;;;;;25.93;50.57;95725.81;5112878;28;20040;-67
2021/06/22 08:43:25;;;;;;;5.63;1.90;;;;;;;25.35;51.37;95728.88;5113418;28;20035;-68
2021/06/22 08:45:51;;;;;;;6.38;1.50;;;;;;;24.68;53.29;95724.94;5113223;28;20044;-67
2021/06/22 08:48:19;;;;;;;4.82;1.58;;;;;;;25.36;51.36;95738.53;5112969;28;20043;-68
2021/06/22 08:50:45;;;;;;;;;;;;;;;25.41;50.64;95731.34;5113044;28;20044;-67
2021/06/22 08:53:12;;;;;;;5.22;1.50;;;;;;;25.22;49.89;95732.72;5112673;28;19924;-68
2021/06/22 08:55:39;;;;;;;4.88;1.45;;;;;;;25.89;48.87;95735.75;5112826;28;20035;-68
2021/06/22 08:58:06;;;;;;;4.90;1.40;;;;;;;27.19;46.73;95727.66;5112420;28;20130;-68
2021/06/22 09:00:39;;;;;;;3.75;1.40;;;;;;;27.26;45.09;95735.91;5112589;28;20478;-67
2021/06/22 09:03:10;;;;;;;5.40;1.50;;;;;;;27.74;46.24;95728.38;5112515;28;20050;-68
2021/06/22 09:05:40;;;;;;;5.63;1.60;;;;;;;27.51;45.67;95725.59;5112647;28;20445;-68
2021/06/22 09:08:16;;;;;;;8.35;1.60;;;;;;;27.73;46.09;95734.94;5112397;28;20407;-68
2021/06/22 09:10:42;;;;;;;6.15;1.77;;;;;;;27.76;45.73;95739.59;5111549;28;20426;-68
2021/06/22 09:13:14;;;;;;;6.32;1.63;;;;;;;27.46;46.31;95737.47;5112469;28;20443;-68
2021/06/22 09:15:44;;;;;;;4.03;1.50;;;;;;;27.86;46.18;95752.53;5094047;28;20035;-68
2021/06/22 09:18:40;;;;;;;6.43;2.15;;;;;;;28.28;44.40;95754.44;5112266;28;20101;-68
2021/06/22 09:21:13;;;;;;;6.80;1.80;;;;;;;27.96;45.56;95751.19;5065783;28;20413;-67
2021/06/22 09:23:40;;;;;;;6.82;1.83;;;;;;;28.60;43.80;95746.09;5112926;28;20035;-67
2021/06/22 09:26:11;;;;;;;7.78;1.80;;;;;;;27.84;46.18;95744.00;5094132;28;20097;-68
2021/06/22 09:28:39;;;;;;;6.65;1.45;;;;;;;27.61;46.01;95743.94;5112841;28;20152;-68
2021/06/22 09:31:07;;;;;;;8.15;1.95;;;;;;;29.36;40.90;95749.50;5113110;28;20044;-67
2021/06/22 09:33:37;;;;;;;8.27;1.63;;;;;;;27.62;43.99;95742.81;5112674;28;20051;-66
2021/06/22 09:36:13;;;;;;;5.90;1.58;;;;;;;28.09;42.43;95741.78;5112524;28;20399;-68
2021/06/22 09:38:42;;;;;;;6.43;1.52;;;;;;;28.03;42.80;95750.50;5093821;28;20040;-68
2021/06/22 09:41:14;;;;;;;7.47;1.45;;;;;;;26.36;45.70;95751.94;5112556;28;20043;-68
2021/06/22 09:43:43;;;;;;;4.05;1.30;;;;;;;26.00;45.39;95752.97;5112154;28;20526;-67
2021/06/22 09:46:10;;;;;;;5.97;1.60;;;;;;;26.45;46.66;95754.50;5094277;28;20036;-67
2021/06/22 09:48:44;;;;;;;5.97;1.50;;;;;;;26.22;47.31;95748.91;5117391;28;20046;-67
2021/06/22 09:51:14;;;;;;;6.07;1.52;;;;;;;26.85;45.53;95746.19;5114362;28;20092;-67
2021/06/22 09:53:40;;;;;;;5.80;1.20;;;;;;;26.49;43.57;95738.41;5112689;28;20506;-68
2021/06/22 09:56:18;;;;;;;3.13;1.10;;;;;;;25.62;45.34;95743.47;5111940;28;20072;-68
2021/06/22 09:58:44;;;;;;;4.03;1.08;;;;;;;25.72;43.69;95742.19;5094078;28;20043;-68
2021/06/22 10:01:28;;;;;;;5.10;1.30;;;;;;;25.36;45.94;95740.44;5112639;28;20371;-67
2021/06/22 10:03:55;;;;;;;5.10;1.40;;;;;;;25.39;47.06;95740.50;5112369;28;20044;-68
2021/06/22 10:06:22;;;;;;;4.28;1.08;;;;;;;25.22;46.55;95734.63;5118880;28;20062;-67
2021/06/22 10:08:54;;;;;;;3.78;1.00;;;;;;;25.11;42.98;95734.34;5129291;28;20141;-67
2021/06/22 10:11:31;;;;;;;3.80;1.08;;;;;;;24.94;45.48;95737.25;5124585;28;20411;-66
2021/06/22 10:14:00;;;;;;;5.07;1.27;;;;;;;24.74;45.54;95753.19;5119308;28;20047;-66
2021/06/22 10:16:29;;;;;;;3.83;1.10;;;;;;;24.97;45.43;95744.63;5120595;28;20575;-67
2021/06/22 10:18:55;;;;;;;4.20;1.30;;;;;;;25.38;45.40;95755.09;5112436;28;20062;-67
2021/06/22 10:21:22;;;;;;;4.53;1.20;;;;;;;25.75;44.71;95757.69;5120308;28;20039;-68
2021/06/22 10:23:52;;;;;;;4.80;1.30;;;;;;;25.65;44.38;95760.84;5097965;28;20127;-67
2021/06/22 10:26:20;;;;;;;4.38;1.10;;;;;;;25.60;42.67;95759.19;5115932;28;20176;-67
2021/06/22 10:28:46;;;;;;;4.10;1.00;;;;;;;25.83;40.66;95759.47;5115806;28;20097;-66
2021/06/22 10:31:13;;;;;;;3.85;1.00;;;;;;;26.01;40.16;95753.75;5115717;28;20088;-68
2021/06/22 10:33:38;;;;;;;1.92;0.80;;;;;;;26.76;38.02;95755.59;5115876;28;20463;-68
2021/06/22 10:36:06;;;;;;;3.20;1.20;;;;;;;26.81;37.31;95756.13;5116144;28;20115;-68
2021/06/22 10:38:36;;;;;;;4.93;1.10;;;;;;;27.26;36.27;95756.72;5116669;28;20070;-68
2021/06/22 10:41:03;;;;;;;4.05;1.10;;;;;;;26.75;36.74;95768.31;5115162;28;20585;-69
2021/06/22 10:43:36;;;;;;;4.43;0.98;;;;;;;26.31;39.41;95768.38;5115812;28;20054;-67
2021/06/22 10:46:07;;;;;;;3.78;0.80;;;;;;;26.42;39.04;95765.97;5115916;28;20059;-67
2021/06/22 10:48:43;;;;;;;3.92;0.90;;;;;;;25.85;39.15;95765.28;5115833;28;20051;-68
2021/06/22 10:51:43;;;;;;;5.20;1.13;;;;;;;26.59;39.47;95767.56;5115413;28;20040;-67
2021/06/22 10:54:13;;;;;;;3.15;1.10;;;;;;;26.21;40.46;95768.09;5115983;28;20092;-68
2021/06/22 10:56:42;;;;;;;2.95;0.90;;;;;;;26.13;41.19;95776.03;5096349;28;20502;-68
2021/06/22 10:59:21;;;;;;;4.55;1.13;;;;;;;26.21;41.86;95773.50;5115054;28;20126;-68
2021/06/22 11:02:00;;;;;;;3.13;1.00;;;;;;;26.59;39.84;95779.13;5115165;28;20032;-68
2021/06/22 11:04:26;;;;;;;4.47;1.33;;;;;;;26.50;39.49;95785.81;5114966;28;20066;-68
2021/06/22 11:07:16;;;;;;;5.07;1.00;;;;;;;26.51;39.10;95781.97;5115578;28;20036;-68
2021/06/22 11:10:11;;;;;;;3.33;1.08;;;;;;;26.08;41.02;95787.06;5109080;28;20426;-67
2021/06/22 11:12:57;;;;;;;3.63;1.20;;;;;;;25.54;41.21;95786.72;5096512;28;20039;-68
2021/06/22 11:15:46;;;;;;;5.53;1.38;;;;;;;25.53;41.80;95783.22;5115053;28;20035;-67
2021/06/22 11:18:18;;;;;;;5.85;1.40;;;;;;;25.00;47.35;95778.94;5114532;28;20062;-68
2021/06/22 11:20:45;;;;;;;6.55;2.17;;;;;;;25.09;48.67;95780.44;5114307;28;20594;-67
2021/06/22 11:23:12;;;;;;;6.85;2.00;;;;;;;25.12;48.75;95774.34;5114480;28;20085;-68
2021/06/22 11:26:03;;;;;;;5.93;1.83;;;;;;;25.05;48.77;95770.66;5114604;28;20056;-67
2021/06/22 11:28:50;;;;;;;5.95;1.58;;;;;;;24.80;49.54;95776.03;5114668;28;20138;-67